createdAt,value
2019-01-08T00:01:33.894Z,23.00
2019-01-08T00:04:05.476Z,23.87
2019-01-08T00:06:35.275Z,23.00
2019-01-08T00:09:04.918Z,24.17
2019-01-08T00:11:34.246Z,26.00
2019-01-08T00:14:04.484Z,21.80
2019-01-08T00:16:34.174Z,22.97
2019-01-08T00:19:03.579Z,23.07
2019-01-08T00:21:32.886Z,21.80
2019-01-08T00:24:03.079Z,22.97
2019-01-08T00:26:32.412Z,23.43
2019-01-08T00:29:01.689Z,23.00
2019-01-08T00:31:31.312Z,23.03
2019-01-08T00:34:00.652Z,20.97
2019-01-08T00:36:29.953Z,22.30
2019-01-08T00:38:59.247Z,21.83
2019-01-08T00:41:28.916Z,23.40
2019-01-08T00:43:58.191Z,24.77
2019-01-08T00:46:28.347Z,22.03
2019-01-08T00:48:57.803Z,23.07
2019-01-08T00:51:27.104Z,21.97
2019-01-08T00:53:56.692Z,23.40
2019-01-08T00:56:26.127Z,22.50
2019-01-08T00:58:55.448Z,21.50
2019-01-08T01:01:24.726Z,24.63
2019-01-08T01:03:54.079Z,21.60
2019-01-08T01:06:23.664Z,23.60
2019-01-08T01:08:55.979Z,19.60
2019-01-08T01:11:25.408Z,20.47
2019-01-08T01:13:54.760Z,20.87
2019-01-08T01:16:24.434Z,20.57
2019-01-08T01:18:56.316Z,19.70
2019-01-08T01:21:25.604Z,19.50
2019-01-08T01:23:54.922Z,19.07
2019-01-08T01:26:24.521Z,18.70
2019-01-08T01:28:59.958Z,20.93
2019-01-08T01:31:24.895Z,18.27
2019-01-08T01:33:54.451Z,18.00
2019-01-08T01:36:23.792Z,19.47
2019-01-08T01:38:55.933Z,19.47
2019-01-08T01:41:25.272Z,19.97
2019-01-08T01:43:54.602Z,18.63
2019-01-08T01:46:23.924Z,18.90
2019-01-08T01:48:54.422Z,18.07
2019-01-08T01:51:23.841Z,18.20
2019-01-08T01:53:53.161Z,17.00
2019-01-08T01:56:22.530Z,18.57
2019-01-08T01:58:53.879Z,19.33
2019-01-08T02:01:23.503Z,20.20
2019-01-08T02:03:52.914Z,18.80
2019-01-08T02:06:22.304Z,19.30
2019-01-08T02:08:53.188Z,20.33
2019-01-08T02:11:22.513Z,19.47
2019-01-08T02:13:51.901Z,20.50
2019-01-08T02:16:21.469Z,20.47
2019-01-08T02:18:53.672Z,22.47
2019-01-08T02:21:23.218Z,19.63
2019-01-08T02:23:52.526Z,20.10
2019-01-08T02:26:21.899Z,18.93
2019-01-08T02:28:51.254Z,19.00
2019-01-08T02:31:20.862Z,18.50
2019-01-08T02:33:50.461Z,19.37
2019-01-08T02:36:19.789Z,18.27
2019-01-08T02:38:49.097Z,17.53
2019-01-08T02:41:18.949Z,14.80
2019-01-08T02:43:48.271Z,16.73
2019-01-08T02:46:17.748Z,16.83
2019-01-08T02:48:47.208Z,16.30
2019-01-08T02:51:17.374Z,17.07
2019-01-08T02:53:46.955Z,16.30
2019-01-08T02:56:16.312Z,15.33
2019-01-08T02:58:45.717Z,15.30
2019-01-08T03:01:15.018Z,14.37
2019-01-08T03:03:44.323Z,12.03
2019-01-08T03:06:13.620Z,10.03
2019-01-08T03:08:42.890Z,8.10
2019-01-08T03:11:12.378Z,6.40
2019-01-08T03:13:41.654Z,5.30
2019-01-08T03:16:11.362Z,4.60
2019-01-08T03:18:40.695Z,4.87
2019-01-08T03:21:09.954Z,5.20
2019-01-08T03:23:39.567Z,5.40
2019-01-08T03:26:08.859Z,5.13
